Time;durP1;ratioP1;P1;durP2;ratioP2;P2;SDS_P1;SDS_P2;PMS_P1;PMS_P2;Temp;Humidity;BMP_temperature;BMP_pressure;BME280_temperature;BME280_humidity;BME280_pressure;Samples;Min_cycle;Max_cycle;Signal;HPM_P1;HPM_P2
2021/03/23 00:01:07;;;;;;;5.35;4.40;;;;;;;8.48;32.17;100609.69;5060888;28;20457;-67
2021/03/23 00:03:37;;;;;;;13.77;7.53;;;;;;;8.25;32.75;100604.41;5058496;28;20033;-67
2021/03/23 00:06:05;;;;;;;7.53;5.50;;;;;;;8.20;33.01;100614.94;5058806;28;20048;-67
2021/03/23 00:08:39;;;;;;;6.82;3.88;;;;;;;8.39;32.67;100621.25;5061861;28;20116;-67
2021/03/23 00:11:21;;;;;;;7.15;4.47;;;;;;;8.35;33.08;100631.75;5060202;28;20507;-67
2021/03/23 00:13:49;;;;;;;6.30;4.80;;;;;;;8.14;34.01;100633.34;5060268;28;20049;-67
2021/03/23 00:16:42;;;;;;;7.90;4.57;;;;;;;8.01;33.80;100639.84;5060707;28;20070;-67
2021/03/23 00:19:11;;;;;;;8.90;3.97;;;;;;;7.87;33.91;100641.13;5003047;28;20516;-64
2021/03/23 00:21:38;;;;;;;10.50;3.97;;;;;;;7.92;33.86;100658.31;5003001;28;20069;-65
2021/03/23 00:24:05;;;;;;;5.35;4.05;;;;;;;7.95;33.74;100656.47;5003233;28;20069;-64
2021/03/23 00:26:32;;;;;;;5.95;4.15;;;;;;;8.02;33.84;100668.34;5004487;28;20132;-64
2021/03/23 00:28:58;;;;;;;5.88;4.07;;;;;;;7.51;35.43;100669.13;5002415;28;20042;-64
2021/03/23 00:31:30;;;;;;;5.78;4.90;;;;;;;7.43;35.42;100672.84;5004234;28;20038;-64
2021/03/23 00:33:59;;;;;;;5.78;4.63;;;;;;;7.60;35.03;100673.16;4990602;28;20050;-64
2021/03/23 00:36:29;;;;;;;6.28;4.22;;;;;;;7.85;34.38;100673.25;5004093;28;20558;-64
2021/03/23 00:38:56;;;;;;;11.15;4.70;;;;;;;7.87;34.04;100684.41;4989675;28;20042;-63
2021/03/23 00:41:23;;;;;;;6.32;4.95;;;;;;;7.92;33.68;100684.28;4992160;28;20497;-64
2021/03/23 00:43:51;;;;;;;7.38;5.43;;;;;;;7.56;34.43;100684.50;4990517;28;20049;-63
2021/03/23 00:46:17;;;;;;;8.85;5.97;;;;;;;7.40;35.10;100688.47;4990666;28;20154;-65
2021/03/23 00:48:44;;;;;;;7.95;6.20;;;;;;;7.51;35.05;100686.41;4982288;28;20045;-65
2021/03/23 00:51:10;;;;;;;8.10;4.72;;;;;;;7.63;34.80;100691.25;4992157;28;20042;-65
2021/03/23 00:53:37;;;;;;;7.13;4.45;;;;;;;7.65;34.94;100688.59;4991050;28;20042;-65
2021/03/23 00:56:04;;;;;;;7.95;4.10;;;;;;;7.67;34.76;100698.03;4993998;28;20043;-65
2021/03/23 00:58:30;;;;;;;5.30;4.00;;;;;;;7.37;36.13;100696.34;4993229;28;20575;-65
2021/03/23 01:00:57;;;;;;;8.50;3.90;;;;;;;7.23;36.02;100697.59;4995441;28;20513;-64
2021/03/23 01:03:23;;;;;;;7.25;3.63;;;;;;;7.43;35.31;100698.75;4992499;28;20046;-64
2021/03/23 01:05:50;;;;;;;9.20;5.10;;;;;;;7.33;35.48;100698.19;4990998;28;20069;-65
2021/03/23 01:08:17;;;;;;;6.55;3.85;;;;;;;7.37;35.98;100701.53;4994286;28;20133;-63
2021/03/23 01:10:44;;;;;;;7.50;4.10;;;;;;;7.41;35.62;100695.38;4991688;28;20062;-63
2021/03/23 01:13:11;;;;;;;7.93;4.05;;;;;;;7.18;36.60;100709.84;4989714;28;20735;-63
2021/03/23 01:15:38;;;;;;;6.82;3.95;;;;;;;7.24;36.70;100701.03;4997141;28;20046;-63
2021/03/23 01:18:05;;;;;;;9.05;4.05;;;;;;;7.42;35.59;100707.44;4991783;28;20510;-63
2021/03/23 01:20:32;;;;;;;8.25;4.68;;;;;;;7.76;34.02;100709.84;4991517;28;20041;-64
2021/03/23 01:22:59;;;;;;;7.13;4.90;;;;;;;7.81;33.66;100707.97;4991638;28;20077;-63
2021/03/23 01:25:26;;;;;;;12.02;4.32;;;;;;;7.68;33.37;100709.25;4991905;28;20047;-64
2021/03/23 01:27:53;;;;;;;5.78;4.03;;;;;;;7.66;33.38;100706.69;4994997;28;20555;-63
2021/03/23 01:30:22;;;;;;;6.78;3.80;;;;;;;7.72;33.88;100710.84;4995971;28;20042;-64
2021/03/23 01:32:49;;;;;;;7.40;3.78;;;;;;;7.75;33.14;100703.81;4992601;28;20034;-64
2021/03/23 01:35:17;;;;;;;5.13;3.90;;;;;;;7.67;33.37;100713.59;4992458;28;20138;-64
2021/03/23 01:37:43;;;;;;;5.88;3.67;;;;;;;7.78;32.81;100713.28;4997014;28;20093;-64
2021/03/23 01:40:12;;;;;;;6.18;3.47;;;;;;;7.83;32.77;100704.44;4993028;28;22484;-64
2021/03/23 01:42:56;;;;;;;6.13;4.15;;;;;;;7.90;32.78;100714.63;4994524;28;20121;-64
2021/03/23 01:45:34;;;;;;;7.57;4.30;;;;;;;7.83;32.52;100722.63;4991236;28;20053;-66
2021/03/23 01:48:05;;;;;;;4.90;4.03;;;;;;;7.81;32.60;100720.94;4992928;28;20454;-64
2021/03/23 01:50:31;;;;;;;5.72;3.70;;;;;;;7.80;32.99;100720.09;4991735;28;20088;-65
2021/03/23 01:53:23;;;;;;;5.82;3.85;;;;;;;7.73;33.16;100716.00;4991446;28;20042;-65
2021/03/23 01:55:50;;;;;;;4.57;3.42;;;;;;;7.83;32.60;100716.59;4988600;28;20034;-65
2021/03/23 01:58:19;;;;;;;6.45;3.25;;;;;;;7.73;32.48;100716.00;4989132;28;20122;-65
2021/03/23 02:00:49;;;;;;;4.25;3.67;;;;;;;7.83;32.45;100717.44;4994332;28;20124;-66
2021/03/23 02:03:17;;;;;;;4.57;3.08;;;;;;;7.94;32.19;100721.44;4991383;28;20469;-64
2021/03/23 02:05:52;;;;;;;4.43;2.53;;;;;;;8.02;32.17;100724.63;4988569;28;20044;-66
2021/03/23 02:08:19;;;;;;;;;;;;;;;8.02;32.17;100722.88;4991154;28;20109;-63
2021/03/23 02:10:45;;;;;;;4.53;2.95;;;;;;;8.00;31.92;100726.44;4990241;28;20009;-65
2021/03/23 02:13:12;;;;;;;3.90;2.72;;;;;;;8.08;31.71;100732.22;4991266;28;20054;-65
2021/03/23 02:15:38;;;;;;;5.18;3.00;;;;;;;8.16;31.46;100732.81;4990864;28;20089;-65
2021/03/23 02:18:12;;;;;;;4.57;3.42;;;;;;;7.97;32.92;100736.91;4991320;28;20050;-65
2021/03/23 02:21:00;;;;;;;8.50;3.55;;;;;;;7.72;33.91;100736.78;4994073;28;20125;-66
2021/03/23 02:23:35;;;;;;;5.38;3.60;;;;;;;7.67;34.52;100741.28;4993129;28;20038;-65
2021/03/23 02:26:03;;;;;;;8.77;4.30;;;;;;;6.97;35.96;100746.72;5008172;28;20078;-65
2021/03/23 02:28:29;;;;;;;6.03;4.35;;;;;;;6.70;36.51;100751.75;4992753;28;20057;-65
2021/03/23 02:30:56;;;;;;;8.02;4.55;;;;;;;6.18;38.00;100757.38;4989849;28;20074;-66
2021/03/23 02:33:23;;;;;;;4.85;4.28;;;;;;;5.81;39.01;100765.13;4988108;28;20057;-66
2021/03/23 02:35:49;;;;;;;5.80;5.20;;;;;;;5.56;39.50;100768.22;4989922;28;20429;-66
2021/03/23 02:38:16;;;;;;;7.95;5.20;;;;;;;5.67;39.52;100768.00;4993544;28;20117;-64
2021/03/23 02:40:43;;;;;;;10.40;6.20;;;;;;;5.39;40.28;100784.09;4994210;28;20046;-64
2021/03/23 02:43:11;;;;;;;10.57;5.93;;;;;;;5.91;39.36;100792.47;4993585;28;20135;-64
2021/03/23 02:45:43;;;;;;;10.65;5.85;;;;;;;5.97;39.06;100798.41;4992210;28;20034;-64
2021/03/23 02:48:10;;;;;;;10.77;5.30;;;;;;;6.20;38.86;100802.22;4991709;28;20098;-64
2021/03/23 02:50:36;;;;;;;13.07;5.65;;;;;;;6.38;38.76;100809.53;4990424;28;20445;-64
2021/03/23 02:53:03;;;;;;;7.32;5.53;;;;;;;6.61;38.29;100801.22;4987383;28;20050;-64
2021/03/23 02:55:29;;;;;;;7.82;5.28;;;;;;;6.54;38.18;100804.84;4985409;28;20817;-63
2021/03/23 02:57:55;;;;;;;5.70;4.75;;;;;;;6.51;38.19;100810.97;4989571;28;20082;-63
2021/03/23 03:00:22;;;;;;;6.78;5.47;;;;;;;6.47;38.09;100813.66;4990901;28;20493;-63
2021/03/23 03:02:51;;;;;;;6.70;4.97;;;;;;;6.58;37.95;100811.66;4991031;28;20139;-64
2021/03/23 03:05:18;;;;;;;13.50;5.70;;;;;;;6.71;37.63;100818.25;4991571;28;20169;-64
2021/03/23 03:07:45;;;;;;;7.20;5.13;;;;;;;6.39;38.66;100819.03;4988125;28;20042;-65
2021/03/23 03:10:13;;;;;;;8.70;5.63;;;;;;;6.35;38.75;100822.59;4991390;28;20066;-65
2021/03/23 03:12:39;;;;;;;5.65;4.72;;;;;;;6.63;37.73;100830.53;4991628;28;20053;-65
2021/03/23 03:15:06;;;;;;;5.25;4.47;;;;;;;6.59;37.90;100828.91;4991233;28;20127;-64
2021/03/23 03:17:33;;;;;;;5.82;4.90;;;;;;;6.54;38.51;100828.16;4986858;28;20476;-64
2021/03/23 03:19:59;;;;;;;5.32;4.45;;;;;;;6.49;38.54;100836.03;4992344;28;20124;-64
2021/03/23 03:22:26;;;;;;;6.53;4.22;;;;;;;6.40;39.09;100832.84;4988194;28;20046;-66
2021/03/23 03:24:52;;;;;;;5.47;4.78;;;;;;;6.48;38.50;100833.50;4989329;28;20129;-66
2021/03/23 03:27:19;;;;;;;8.52;4.53;;;;;;;6.53;38.14;100837.66;4990419;28;20050;-65
2021/03/23 03:29:45;;;;;;;10.48;5.47;;;;;;;6.42;38.76;100838.81;4986906;28;20121;-65
2021/03/23 03:32:12;;;;;;;7.18;4.07;;;;;;;6.50;38.83;100839.50;4988298;28;20089;-66
2021/03/23 03:34:38;;;;;;;5.43;4.40;;;;;;;6.61;38.62;100847.03;4993457;28;20057;-65
2021/03/23 03:37:05;;;;;;;8.38;4.15;;;;;;;6.59;38.76;100844.44;4990593;28;20133;-65
2021/03/23 03:39:32;;;;;;;6.22;4.22;;;;;;;6.52;39.06;100853.25;4992008;28;20062;-65
2021/03/23 03:42:00;;;;;;;9.73;4.93;;;;;;;6.54;39.00;100846.28;4987214;28;20113;-65
2021/03/23 03:44:26;;;;;;;6.32;5.13;;;;;;;6.19;39.65;100854.88;4990093;28;20038;-65
2021/03/23 03:46:52;;;;;;;9.40;5.13;;;;;;;6.07;39.48;100860.31;4989233;28;20092;-66
2021/03/23 03:49:19;;;;;;;6.55;5.13;;;;;;;6.15;39.97;100861.84;4993616;28;20071;-66
2021/03/23 03:51:46;;;;;;;8.05;5.03;;;;;;;5.93;40.19;100865.81;4993091;28;20042;-65
2021/03/23 03:54:12;;;;;;;7.40;4.82;;;;;;;5.96;40.04;100869.16;4986844;28;20117;-64
2021/03/23 03:56:39;;;;;;;6.10;5.10;;;;;;;5.96;40.44;100868.31;4992141;28;20133;-66
2021/03/23 03:59:05;;;;;;;8.73;5.28;;;;;;;5.93;40.50;100870.97;4997989;28;20038;-67
2021/03/23 04:01:31;;;;;;;9.18;5.70;;;;;;;5.74;41.08;100867.88;5000021;28;20292;-66
2021/03/23 04:03:59;;;;;;;7.60;5.13;;;;;;;5.94;40.13;100875.25;4999788;28;20477;-66
2021/03/23 04:06:38;;;;;;;6.45;5.40;;;;;;;6.11;39.64;100875.75;5003752;28;20046;-66
2021/03/23 04:09:05;;;;;;;7.97;5.28;;;;;;;5.89;40.43;100877.91;4997608;28;20470;-66
2021/03/23 04:11:32;;;;;;;6.78;5.38;;;;;;;6.16;39.67;100886.84;5001140;28;20046;-66
2021/03/23 04:14:00;;;;;;;8.98;5.18;;;;;;;5.87;39.67;100889.19;4996613;28;20062;-66
2021/03/23 04:16:26;;;;;;;8.95;6.75;;;;;;;5.84;40.46;100899.59;5000263;28;20100;-65
2021/03/23 04:18:53;;;;;;;6.57;5.13;;;;;;;5.79;40.47;100902.25;5005091;28;20034;-65
2021/03/23 04:21:19;;;;;;;11.07;5.85;;;;;;;5.72;40.57;100906.72;5001149;28;20101;-64
2021/03/23 04:23:45;;;;;;;6.95;5.10;;;;;;;5.76;40.87;100903.19;4997924;28;20042;-64
2021/03/23 04:26:13;;;;;;;12.25;6.90;;;;;;;5.78;40.66;100916.94;4996920;28;20121;-65
2021/03/23 04:28:40;;;;;;;5.93;5.22;;;;;;;5.74;40.53;100917.88;5000105;28;20054;-65
2021/03/23 04:31:10;;;;;;;9.30;6.10;;;;;;;6.04;39.60;100913.84;5003862;28;20069;-64
2021/03/23 04:33:37;;;;;;;8.82;5.18;;;;;;;5.75;40.83;100917.00;4995586;28;20465;-64
2021/03/23 04:36:06;;;;;;;12.68;7.10;;;;;;;5.66;41.05;100921.50;4999019;28;20464;-65
2021/03/23 04:38:35;;;;;;;8.95;7.80;;;;;;;5.65;40.95;100920.66;4997169;28;20043;-65
2021/03/23 04:41:09;;;;;;;11.35;9.45;;;;;;;5.50;41.55;100926.09;5002549;28;20042;-64
2021/03/23 04:43:37;;;;;;;;;;;;;;;5.53;41.77;100931.19;5002771;28;20074;-64
2021/03/23 04:46:04;;;;;;;10.25;6.63;;;;;;;5.48;41.51;100933.03;4991261;28;19925;-65
2021/03/23 04:48:31;;;;;;;13.57;7.45;;;;;;;5.41;42.15;100934.03;5000490;28;20046;-66
2021/03/23 04:50:59;;;;;;;8.27;5.88;;;;;;;5.40;42.43;100935.75;5001690;28;20093;-66
2021/03/23 04:53:35;;;;;;;11.45;5.70;;;;;;;5.38;42.46;100941.81;4996273;28;20528;-65
2021/03/23 04:56:03;;;;;;;13.50;5.38;;;;;;;5.36;42.25;100941.00;5000144;28;20117;-66
2021/03/23 04:58:30;;;;;;;8.27;5.95;;;;;;;5.34;42.35;100950.53;5002846;28;20046;-64
2021/03/23 05:00:58;;;;;;;7.20;6.30;;;;;;;5.65;41.89;100956.88;5003267;28;20038;-64
2021/03/23 05:03:30;;;;;;;12.82;6.32;;;;;;;5.32;42.70;100952.28;4996472;28;20042;-63
2021/03/23 05:06:10;;;;;;;6.07;4.55;;;;;;;5.29;42.81;100962.69;5000265;28;20398;-64
2021/03/23 05:08:42;;;;;;;5.93;4.43;;;;;;;5.40;42.63;100958.19;4991746;28;20073;-64
2021/03/23 05:11:11;;;;;;;7.72;4.50;;;;;;;5.43;42.69;100956.41;4999719;28;20042;-65
2021/03/23 05:13:37;;;;;;;6.82;4.53;;;;;;;5.20;42.86;100959.34;4996053;28;20038;-67
2021/03/23 05:16:04;;;;;;;6.47;5.05;;;;;;;5.36;42.79;100969.44;4995422;28;20038;-64
2021/03/23 05:18:31;;;;;;;5.22;4.72;;;;;;;5.35;43.15;100962.56;5001927;28;20137;-64
2021/03/23 05:20:57;;;;;;;6.13;5.25;;;;;;;5.11;43.44;100972.41;5001589;28;20433;-65
2021/03/23 05:23:24;;;;;;;6.97;4.65;;;;;;;5.14;43.58;100982.72;5004235;28;20125;-63
2021/03/23 05:25:51;;;;;;;4.70;4.18;;;;;;;5.29;43.40;100980.78;4999247;28;20398;-65
2021/03/23 05:28:18;;;;;;;6.85;4.90;;;;;;;5.38;42.78;100993.53;4995663;28;20050;-64
2021/03/23 05:30:45;;;;;;;9.02;4.95;;;;;;;5.44;42.92;100993.44;4997353;28;20054;-64
2021/03/23 05:33:13;;;;;;;5.63;4.22;;;;;;;5.36;43.71;100997.88;4998918;28;20046;-65
2021/03/23 05:35:41;;;;;;;7.88;4.90;;;;;;;5.81;42.11;101003.16;4991301;28;20046;-65
2021/03/23 05:38:08;;;;;;;8.35;4.78;;;;;;;5.59;42.64;101008.69;4995620;28;20449;-64
2021/03/23 05:41:03;;;;;;;7.13;4.68;;;;;;;6.16;41.08;101008.53;4988799;28;20046;-64
2021/03/23 05:43:52;;;;;;;5.53;4.45;;;;;;;6.43;39.86;101012.28;5003214;28;20066;-64
2021/03/23 05:46:33;;;;;;;12.55;7.30;;;;;;;6.45;39.96;101012.28;4999840;28;20060;-65
2021/03/23 05:49:11;;;;;;;9.38;5.55;;;;;;;6.49;40.17;101013.91;5004093;28;20041;-65
2021/03/23 05:51:37;;;;;;;11.38;5.53;;;;;;;6.79;40.00;101013.25;4998793;28;20406;-65
2021/03/23 05:54:19;;;;;;;6.55;5.05;;;;;;;7.35;39.03;101015.44;5024098;28;20042;-64
2021/03/23 05:56:50;;;;;;;8.23;5.15;;;;;;;7.48;38.84;101023.75;4996144;28;20066;-64
2021/03/23 05:59:33;;;;;;;11.05;5.72;;;;;;;7.77;37.85;101033.38;4996375;28;20478;-65
2021/03/23 06:02:13;;;;;;;8.00;5.43;;;;;;;8.06;37.38;101032.63;4993162;28;20042;-65
2021/03/23 06:04:54;;;;;;;12.13;5.35;;;;;;;8.13;36.89;101029.81;4997553;28;20054;-65
2021/03/23 06:07:21;;;;;;;21.38;5.53;;;;;;;8.62;36.63;101027.59;5001196;28;20050;-64
2021/03/23 06:09:47;;;;;;;8.13;5.70;;;;;;;9.13;35.25;101024.31;5001053;28;20116;-64
2021/03/23 06:12:30;;;;;;;7.70;5.65;;;;;;;9.13;35.01;101029.50;4998504;28;20456;-65
2021/03/23 06:15:17;;;;;;;10.75;5.85;;;;;;;9.55;34.38;101029.88;4996363;28;20116;-64
2021/03/23 06:18:21;;;;;;;7.68;5.57;;;;;;;9.63;34.16;101029.59;4994926;28;20062;-64
2021/03/23 06:21:09;;;;;;;6.88;5.45;;;;;;;10.29;32.91;101027.34;4986787;28;20391;-64
2021/03/23 06:23:57;;;;;;;12.70;5.47;;;;;;;10.73;32.01;101030.91;4980563;28;20097;-67
2021/03/23 06:26:46;;;;;;;9.23;5.10;;;;;;;11.34;31.07;101033.69;4987171;28;20054;-65
2021/03/23 06:29:42;;;;;;;10.35;5.07;;;;;;;11.72;30.33;101034.75;4988915;28;20078;-67
2021/03/23 06:32:53;;;;;;;6.10;4.55;;;;;;;12.12;29.76;101045.28;4996897;28;20065;-65
2021/03/23 06:35:35;;;;;;;7.13;5.28;;;;;;;12.09;29.14;101048.00;4991289;28;20057;-65
2021/03/23 06:38:05;;;;;;;7.25;5.68;;;;;;;11.96;28.55;101047.72;4994184;28;20050;-65
2021/03/23 06:40:35;;;;;;;8.75;6.15;;;;;;;12.29;28.96;101055.84;4992241;28;20054;-65
2021/03/23 06:43:27;;;;;;;11.82;5.22;;;;;;;12.77;27.69;101054.53;4989759;28;20066;-65
2021/03/23 06:46:02;;;;;;;12.18;5.93;;;;;;;13.00;27.38;101054.34;4992736;28;20137;-65
2021/03/23 06:48:32;;;;;;;6.68;5.22;;;;;;;13.59;27.61;101058.47;4993648;28;20042;-66
2021/03/23 06:51:25;;;;;;;15.40;6.30;;;;;;;12.88;28.06;101061.88;4993941;28;20375;-64
2021/03/23 06:53:52;;;;;;;12.00;5.53;;;;;;;13.01;28.48;101076.97;4989759;28;20080;-65
2021/03/23 06:56:27;;;;;;;10.43;5.10;;;;;;;13.16;28.46;101075.41;4993888;28;20050;-62
2021/03/23 06:59:14;;;;;;;7.13;4.85;;;;;;;13.65;27.94;101073.03;4994067;28;20062;-72
2021/03/23 07:01:52;;;;;;;6.72;4.70;;;;;;;14.38;27.59;101068.41;4993162;28;20129;-71
2021/03/23 07:04:34;;;;;;;9.55;5.68;;;;;;;14.67;27.02;101070.38;4992586;28;20050;-72
2021/03/23 07:07:05;;;;;;;17.02;5.03;;;;;;;14.76;26.59;101078.69;4990959;28;20073;-71
2021/03/23 07:09:32;;;;;;;10.60;4.60;;;;;;;14.76;26.05;101074.28;4994140;28;20125;-68
2021/03/23 07:12:04;;;;;;;9.25;4.28;;;;;;;14.87;25.87;101082.44;4992299;28;20197;-68
2021/03/23 07:14:37;;;;;;;6.65;4.20;;;;;;;15.35;25.57;101083.25;4993151;28;20049;-67
2021/03/23 07:17:11;;;;;;;5.07;3.60;;;;;;;15.33;25.59;101079.00;4986868;28;20062;-67
2021/03/23 07:19:49;;;;;;;8.13;4.00;;;;;;;15.51;25.07;101088.50;4991243;28;20133;-64
2021/03/23 07:22:21;;;;;;;4.25;3.55;;;;;;;15.51;25.13;101087.66;4988738;28;20129;-66
2021/03/23 07:24:50;;;;;;;12.80;4.00;;;;;;;15.89;25.03;101091.56;4985467;28;20038;-67
2021/03/23 07:27:19;;;;;;;4.40;3.42;;;;;;;16.61;24.26;101099.50;4978473;28;20171;-66
2021/03/23 07:29:47;;;;;;;6.50;3.55;;;;;;;16.87;23.66;101090.88;4975345;28;20697;-66
2021/03/23 07:32:47;;;;;;;5.70;4.25;;;;;;;16.99;23.54;101094.50;4975218;28;20450;-65
2021/03/23 07:35:32;;;;;;;12.82;5.07;;;;;;;16.68;23.43;101091.16;4972114;28;20070;-67
2021/03/23 07:38:07;;;;;;;5.60;4.30;;;;;;;17.26;23.61;101090.16;4981957;28;20058;-67
2021/03/23 07:40:41;;;;;;;7.40;3.95;;;;;;;17.18;23.89;101096.84;4978724;28;20096;-66
2021/03/23 07:43:37;;;;;;;5.55;3.70;;;;;;;17.57;23.03;101101.31;4978525;28;20085;-65
2021/03/23 07:46:17;;;;;;;7.38;4.00;;;;;;;17.91;22.49;101110.50;4977215;28;20042;-65
2021/03/23 07:49:10;;;;;;;7.75;4.47;;;;;;;18.05;22.55;101109.56;4976208;28;20046;-65
2021/03/23 07:51:39;;;;;;;14.00;4.43;;;;;;;17.96;22.09;101107.56;4979343;28;20066;-66
2021/03/23 07:54:27;;;;;;;8.93;4.70;;;;;;;17.00;23.19;101114.66;4983476;28;20042;-65
2021/03/23 07:57:42;;;;;;;13.43;4.47;;;;;;;17.64;23.06;101121.06;4985903;28;20125;-71
2021/03/23 08:00:32;;;;;;;25.80;7.63;;;;;;;17.53;23.51;101110.38;4946643;29;20094;-74
2021/03/23 08:03:33;;;;;;;14.02;4.88;;;;;;;17.54;23.16;101114.69;4992470;28;20042;-63
2021/03/23 08:06:44;;;;;;;17.90;5.47;;;;;;;17.04;24.00;101121.41;4998914;28;20049;-65
2021/03/23 08:09:18;;;;;;;9.40;4.45;;;;;;;16.62;24.33;101122.25;4995968;28;20043;-63
2021/03/23 08:12:08;;;;;;;15.93;4.33;;;;;;;17.55;24.78;101116.38;4990031;28;20058;-64
2021/03/23 08:14:50;;;;;;;12.55;5.80;;;;;;;18.53;22.90;101115.91;4989250;28;20042;-65
2021/03/23 08:17:48;;;;;;;9.02;2.92;;;;;;;17.74;25.13;101122.19;4990192;28;20129;-70
2021/03/23 08:20:40;;;;;;;5.80;3.22;;;;;;;17.91;25.08;101114.94;4989844;28;20085;-68
2021/03/23 08:23:28;;;;;;;3.97;2.47;;;;;;;16.76;23.92;101132.81;4989077;28;20048;-63
2021/03/23 08:26:08;;;;;;;9.50;3.08;;;;;;;18.42;23.65;101122.88;4995988;28;20066;-65
2021/03/23 08:28:58;;;;;;;6.75;2.50;;;;;;;19.41;23.34;101118.50;4991581;28;20096;-63
2021/03/23 08:31:55;;;;;;;7.43;3.00;;;;;;;19.41;21.14;101118.50;4988944;28;20069;-65
2021/03/23 08:34:28;;;;;;;8.48;2.28;;;;;;;19.52;20.21;101126.47;4991559;28;20048;-64
2021/03/23 08:37:27;;;;;;;6.85;1.92;;;;;;;20.23;20.21;101129.16;4990941;28;20133;-67
2021/03/23 08:40:24;;;;;;;5.80;2.25;;;;;;;19.68;20.93;101136.81;4991690;28;20069;-65
2021/03/23 08:42:50;;;;;;;5.45;2.45;;;;;;;20.82;21.93;101140.44;4987746;28;20149;-64
2021/03/23 08:45:23;;;;;;;7.45;2.47;;;;;;;18.88;20.73;101138.22;4988702;28;20151;-62
2021/03/23 08:47:58;;;;;;;3.47;2.35;;;;;;;19.32;20.80;101135.88;4989548;28;20555;-62
2021/03/23 08:50:38;;;;;;;3.78;2.00;;;;;;;19.35;20.16;101140.94;4992360;28;20053;-59
2021/03/23 08:53:34;;;;;;;6.03;2.20;;;;;;;18.13;21.42;101149.47;4997379;28;20134;-66
2021/03/23 08:56:03;;;;;;;3.35;2.20;;;;;;;18.28;21.75;101145.81;4997403;28;20093;-67
2021/03/23 08:58:49;;;;;;;6.63;2.22;;;;;;;19.12;20.45;101139.09;4992888;28;20070;-67
2021/03/23 09:01:25;;;;;;;5.97;2.17;;;;;;;19.27;20.63;101148.56;4988465;28;20122;-67
2021/03/23 09:04:04;;;;;;;8.65;2.13;;;;;;;19.28;20.75;101152.06;4988012;28;20054;-65
2021/03/23 09:06:56;;;;;;;7.68;2.45;;;;;;;18.45;21.40;101163.13;4997051;28;20052;-66
2021/03/23 09:09:25;;;;;;;5.05;1.95;;;;;;;17.99;21.39;101157.47;4994467;28;20421;-66
2021/03/23 09:12:28;;;;;;;4.68;2.25;;;;;;;18.14;21.76;101160.88;4999103;28;20058;-65
2021/03/23 09:15:12;;;;;;;4.18;2.00;;;;;;;17.51;22.15;101162.34;4999816;28;20156;-66
2021/03/23 09:18:00;;;;;;;7.63;3.63;;;;;;;16.52;24.11;101169.38;4997912;28;20129;-65
2021/03/23 09:20:33;;;;;;;8.40;2.58;;;;;;;16.55;24.51;101171.81;4995291;28;20609;-66
2021/03/23 09:23:15;;;;;;;6.37;2.73;;;;;;;16.09;24.27;101174.53;4989961;28;20054;-67
2021/03/23 09:25:43;;;;;;;2.88;1.73;;;;;;;16.43;24.16;101165.50;4990139;28;20164;-66
2021/03/23 09:28:12;;;;;;;5.35;2.33;;;;;;;16.26;24.34;101163.03;4991602;28;20393;-66
2021/03/23 09:30:49;;;;;;;4.68;2.67;;;;;;;16.32;24.43;101169.72;4997344;28;20038;-65
2021/03/23 09:33:58;;;;;;;4.38;2.20;;;;;;;16.04;24.53;101159.97;5000396;28;20121;-66
2021/03/23 09:36:32;;;;;;;6.10;3.25;;;;;;;15.61;25.00;101171.13;4983186;28;20052;-66
2021/03/23 09:39:19;;;;;;;7.10;2.50;;;;;;;15.83;25.52;101160.28;4991488;28;20132;-67
2021/03/23 09:42:11;;;;;;;3.92;2.00;;;;;;;15.65;25.46;101161.31;4998777;28;20052;-66
2021/03/23 09:44:55;;;;;;;5.47;2.53;;;;;;;14.92;26.38;101169.66;4998123;28;20034;-67
2021/03/23 09:47:52;;;;;;;4.63;2.38;;;;;;;15.04;25.95;101173.41;4986767;28;20145;-65
2021/03/23 09:50:38;;;;;;;7.25;2.40;;;;;;;14.91;25.69;101182.84;4987855;28;20050;-66
2021/03/23 09:53:31;;;;;;;3.00;2.05;;;;;;;14.77;26.70;101185.38;4987595;28;20097;-66
2021/03/23 09:56:03;;;;;;;3.22;1.85;;;;;;;14.68;26.54;101181.44;4986792;28;20136;-66
2021/03/23 09:58:30;;;;;;;7.35;3.40;;;;;;;14.48;27.39;101185.09;4993420;28;20472;-67
2021/03/23 10:01:21;;;;;;;5.93;2.78;;;;;;;14.48;27.83;101186.88;4995827;28;20066;-66
2021/03/23 10:03:51;;;;;;;5.10;2.78;;;;;;;14.27;27.51;101180.91;4996698;28;20138;-67
2021/03/23 10:06:29;;;;;;;4.38;2.20;;;;;;;14.26;28.02;101189.69;4998261;28;20068;-67
2021/03/23 10:09:02;;;;;;;6.88;3.05;;;;;;;14.19;27.81;101180.44;4994801;28;20041;-66
2021/03/23 10:11:39;;;;;;;7.15;2.95;;;;;;;14.49;27.55;101186.81;5003400;28;20117;-66
2021/03/23 10:14:12;;;;;;;2.92;2.05;;;;;;;14.44;27.77;101183.53;4998149;28;20506;-65
2021/03/23 10:16:42;;;;;;;4.18;2.75;;;;;;;14.59;27.81;101187.16;4986318;28;20061;-66
2021/03/23 10:19:34;;;;;;;6.53;2.42;;;;;;;14.75;27.62;101188.06;4991085;28;20041;-66
2021/03/23 10:22:13;;;;;;;6.00;2.80;;;;;;;14.40;27.92;101190.69;4989143;28;20104;-66
2021/03/23 10:24:42;;;;;;;10.25;3.33;;;;;;;14.49;27.60;101189.44;4992778;28;20101;-65
2021/03/23 10:27:15;;;;;;;13.25;3.65;;;;;;;13.96;28.69;101182.44;4993283;28;20046;-66
2021/03/23 10:30:35;;;;;;;5.40;3.67;;;;;;;14.24;28.35;101175.81;4989572;28;20497;-66
2021/03/23 10:33:19;;;;;;;5.72;2.45;;;;;;;14.62;27.40;101177.34;4970694;28;20590;-66
2021/03/23 10:35:46;;;;;;;3.33;2.45;;;;;;;14.61;27.36;101175.66;4995181;28;20042;-68
2021/03/23 10:38:17;;;;;;;6.10;3.03;;;;;;;14.54;27.49;101174.31;4991686;28;20521;-66
2021/03/23 10:40:49;;;;;;;8.70;3.33;;;;;;;14.65;27.57;101174.59;4989591;28;20050;-66
2021/03/23 10:43:33;;;;;;;8.50;2.92;;;;;;;14.33;27.83;101176.22;4990381;28;20100;-66
2021/03/23 10:46:03;;;;;;;7.55;2.60;;;;;;;14.07;28.90;101174.91;4993484;28;20046;-66
2021/03/23 10:48:33;;;;;;;4.00;2.70;;;;;;;13.82;29.05;101179.63;4994156;28;20049;-66
2021/03/23 10:51:17;;;;;;;4.95;2.95;;;;;;;14.04;28.55;101172.41;4990766;28;20061;-66
2021/03/23 10:54:07;;;;;;;6.22;2.40;;;;;;;14.31;28.26;101169.34;5001073;28;20084;-67
2021/03/23 10:56:36;;;;;;;4.80;2.33;;;;;;;14.41;28.10;101174.03;4996913;28;20460;-66
2021/03/23 10:59:13;;;;;;;6.10;3.22;;;;;;;14.29;28.54;101173.81;4992259;28;20037;-66
2021/03/23 11:01:59;;;;;;;9.10;3.80;;;;;;;14.14;29.04;101162.31;4996884;28;20042;-66
2021/03/23 11:04:27;;;;;;;4.85;3.10;;;;;;;14.53;28.57;101166.50;4995220;28;20053;-66
2021/03/23 11:06:53;;;;;;;11.90;3.92;;;;;;;14.29;28.95;101164.19;4996980;28;20050;-66
2021/03/23 11:09:20;;;;;;;5.85;3.22;;;;;;;14.30;28.67;101167.66;5000344;28;20053;-67
2021/03/23 11:11:58;;;;;;;11.70;3.58;;;;;;;14.67;28.53;101170.09;4998679;28;20121;-66
2021/03/23 11:14:25;;;;;;;11.15;2.90;;;;;;;14.44;28.25;101170.41;4993595;28;20081;-66
2021/03/23 11:16:54;;;;;;;12.02;3.33;;;;;;;14.05;28.36;101171.47;4991008;28;20050;-67
2021/03/23 11:19:31;;;;;;;6.18;3.78;;;;;;;14.29;28.90;101165.94;4995543;28;20138;-66
2021/03/23 11:22:02;;;;;;;4.88;2.83;;;;;;;14.54;28.82;101163.81;4993571;28;20053;-66
2021/03/23 11:24:29;;;;;;;5.57;2.67;;;;;;;14.38;28.40;101162.84;4991001;28;20037;-68
2021/03/23 11:26:57;;;;;;;5.97;4.35;;;;;;;14.60;28.52;101167.88;4988941;28;20532;-66
2021/03/23 11:29:23;;;;;;;5.13;3.05;;;;;;;14.29;28.96;101163.34;4992424;28;20499;-67
2021/03/23 11:31:50;;;;;;;4.20;3.72;;;;;;;14.20;28.86;101161.16;4990885;28;20481;-64
2021/03/23 11:34:17;;;;;;;7.65;3.33;;;;;;;14.53;28.81;101167.34;4982077;28;20611;-64
2021/03/23 11:36:43;;;;;;;3.60;3.03;;;;;;;14.31;29.14;101164.09;4994888;28;20046;-65
2021/03/23 11:39:10;;;;;;;4.28;2.65;;;;;;;14.29;27.95;101163.34;4993913;28;20038;-65
2021/03/23 11:41:41;;;;;;;7.93;3.17;;;;;;;14.30;28.97;101168.50;4992671;28;20050;-65
2021/03/23 11:44:16;;;;;;;8.95;4.25;;;;;;;14.21;28.22;101160.22;4994803;28;20408;-66
2021/03/23 11:47:02;;;;;;;8.18;2.90;;;;;;;14.28;28.48;101167.72;4990694;28;20073;-67
2021/03/23 11:49:53;;;;;;;8.65;3.65;;;;;;;14.18;27.64;101165.66;4999249;28;20050;-66
2021/03/23 11:52:20;;;;;;;5.40;2.95;;;;;;;14.13;28.04;101166.72;4991913;28;20050;-67
2021/03/23 11:54:46;;;;;;;5.20;2.53;;;;;;;14.13;27.90;101158.00;4993050;28;20038;-67
2021/03/23 11:57:13;;;;;;;8.10;2.70;;;;;;;14.10;27.96;101159.00;4996408;28;20132;-67
2021/03/23 11:59:40;;;;;;;11.90;2.92;;;;;;;14.08;28.20;101153.00;4993873;28;20126;-66
2021/03/23 12:02:08;;;;;;;4.70;3.35;;;;;;;14.13;28.51;101155.38;4998023;28;20046;-67